Date,TemperatureHighF,TemperatureAvgF,TemperatureLowF,DewpointHighF,DewpointAvgF,DewpointLowF,HumidityHigh,HumidityAvg,HumidityLow,PressureMaxIn,PressureMinIn,WindSpeedMaxMPH,WindSpeedAvgMPH,GustSpeedMaxMPH,PrecipitationSumIn
2013-1-1,32.5,17.9,8.1,7.6,-0.9,-8.3,65,44,31,29.99,29.87,8,1,8,0.00
2013-1-2,34.0,18.7,7.0,5.3,-2.3,-9.4,48,40,25,30.11,29.96,11,2,11,0.00
2013-1-3,36.9,20.3,9.7,4.6,-4.8,-10.8,48,34,19,30.11,30.02,10,2,10,0.00
2013-1-4,46.9,24.4,8.6,8.6,-3.6,-13.4,45,30,17,30.05,29.90,8,1,8,0.00
2013-1-5,42.3,22.8,9.7,11.8,1.4,-6.9,52,40,28,30.14,29.90,11,2,11,0.00
2013-1-6,49.1,24.9,5.9,9.3,-0.1,-9.1,59,36,16,30.08,29.81,6,1,6,0.00
2013-1-7,51.6,32.6,20.5,11.8,4.0,-2.6,43,31,16,29.90,29.69,10,1,10,0.00
2013-1-8,54.3,34.9,19.4,15.7,6.8,0.2,44,32,18,30.05,29.69,18,2,18,0.00
2013-1-9,59.0,33.8,16.9,17.2,7.4,2.3,57,36,14,30.14,29.87,13,2,13,0.00
2013-1-10,45.9,37.2,23.7,11.8,8.1,-2.3,43,30,20,29.87,29.43,17,3,17,0.00
2013-1-11,41.2,25.8,10.2,26.5,10.3,2.1,74,54,28,29.66,29.28,21,3,21,0.00
2013-1-12,17.8,9.4,0.0,6.1,-2.5,-15.2,69,58,44,29.87,29.66,11,2,11,0.00
2013-1-13,17.8,6.8,-1.3,-1.1,-11.5,-17.5,49,42,38,29.96,29.81,8,2,8,0.00
2013-1-14,18.0,6.9,0.0,2.9,-11.6,-18.0,58,41,39,29.99,29.87,6,1,6,0.00
2013-1-15,33.6,17.7,-4.4,6.2,-5.0,-21.6,46,36,30,29.96,29.90,8,2,8,0.00
2013-1-16,52.3,32.8,18.3,18.5,6.8,-0.8,46,34,21,30.16,29.96,10,2,10,0.00
2013-1-17,50.4,29.7,14.5,16.5,7.2,1.7,60,41,21,30.25,30.05,8,1,8,0.00
2013-1-18,56.8,33.2,16.0,13.1,3.0,-7.8,51,31,15,30.05,29.93,8,2,15,0.00
2013-1-19,58.8,37.1,19.8,9.9,1.3,-7.4,35,23,14,30.11,29.93,8,1,8,0.00
2013-1-20,48.0,31.4,19.8,10.4,2.8,-2.9,44,31,17,30.11,29.96,13,2,13,0.00
2013-1-21,56.5,34.3,12.9,15.5,4.1,-6.4,58,32,15,30.05,29.93,14,2,14,0.00
2013-1-22,63.3,39.4,0.0,12.6,-0.9,-11.3,27,18,13,30.05,29.90,21,3,21,0.00
2013-1-23,55.0,35.5,22.1,8.4,-1.7,-12.9,25,20,15,30.05,29.96,5,1,6,0.00
2013-1-24,65.8,44.8,23.0,16.0,8.2,-2.8,40,24,13,29.99,29.84,18,3,18,0.00
2013-1-25,61.3,40.9,26.1,24.0,14.3,7.3,54,35,21,30.05,29.93,8,2,8,0.00
2013-1-26,55.9,39.0,23.4,33.5,19.1,9.9,77,48,25,29.93,29.66,8,1,8,0.00
2013-1-27,57.2,40.9,27.0,31.2,21.8,8.8,79,51,26,29.72,29.63,9,2,9,0.00
2013-1-28,60.3,37.8,27.7,28.9,19.2,10.1,91,52,17,29.69,29.49,20,3,20,0.00
2013-1-29,30.0,25.7,19.9,26.9,16.1,3.8,90,69,41,29.84,29.60,10,3,13,0.00
2013-1-30,39.6,26.4,10.2,9.9,4.6,-2.7,57,41,28,29.81,29.72,26,5,26,0.00
2013-1-31,48.9,35.3,21.0,14.6,8.6,3.0,48,34,19,29.99,29.78,20,4,20,0.00
2013-2-1,51.4,33.9,20.5,14.7,8.7,5.7,55,37,19,30.05,29.90,24,4,24,0.00
2013-2-2,58.3,34.5,16.7,15.5,6.6,-7.3,61,35,14,30.16,30.05,17,2,17,0.00
2013-2-3,57.2,35.6,19.6,16.5,5.5,-6.0,52,31,14,30.08,29.81,15,1,15,0.00
2013-2-4,54.5,35.5,17.8,12.4,3.7,-1.6,46,28,15,29.87,29.75,17,2,17,0.00
2013-2-5,61.0,39.5,22.1,16.6,6.9,-0.7,46,28,14,29.93,29.75,11,2,11,0.00
2013-2-6,58.3,38.8,23.9,33.3,16.2,3.5,93,45,17,29.96,29.72,10,2,10,0.08
2013-2-7,47.3,34.2,23.7,32.7,20.3,8.6,94,62,28,30.05,29.87,12,2,12,0.00
2013-2-8,52.5,36.6,23.9,17.1,10.0,5.5,55,34,21,29.90,29.60,13,2,13,0.00
2013-2-9,38.7,29.4,19.9,27.0,13.4,4.1,72,52,36,29.66,29.49,10,2,10,0.00
2013-2-10,37.9,27.9,19.8,14.2,7.5,-0.4,71,44,24,29.90,29.52,13,2,13,0.00
2013-2-11,34.9,23.8,12.7,11.2,6.0,1.9,66,48,32,29.93,29.84,13,2,13,0.00
2013-2-12,42.4,25.7,11.1,6.9,-0.7,-9.7,58,35,18,29.93,29.87,10,2,10,0.00
2013-2-13,47.5,32.4,18.5,12.6,1.8,-5.0,36,28,19,29.87,29.81,24,4,24,0.00
2013-2-14,37.9,27.5,21.4,24.3,13.3,3.1,82,58,31,30.14,29.87,16,3,16,0.00
2013-2-15,39.7,25.5,12.6,15.4,8.0,3.0,70,49,26,30.14,30.05,13,2,13,0.00
2013-2-16,56.8,37.3,19.6,15.3,5.6,-3.9,51,30,15,30.05,29.84,24,4,24,0.00
2013-2-17,64.2,40.0,21.6,12.6,5.6,-4.1,44,26,13,29.84,29.52,20,4,20,0.00
2013-2-18,43.5,31.6,19.8,12.1,2.3,-9.7,52,30,18,29.96,29.69,21,4,21,0.00
2013-2-19,43.5,28.4,12.9,7.7,0.4,-9.0,45,31,20,29.93,29.66,8,1,8,0.00
2013-2-20,39.9,28.4,21.6,26.5,12.6,2.0,86,55,30,29.69,29.54,10,2,10,0.00
2013-2-21,30.2,22.1,15.3,27.1,17.0,8.6,88,81,75,29.78,29.60,9,2,9,0.00
2013-2-22,36.3,22.1,9.7,28.4,13.5,3.1,81,69,52,29.81,29.72,10,2,10,0.00
2013-2-23,50.7,30.8,12.0,25.4,13.4,3.8,75,51,26,29.72,29.52,11,3,11,0.04
2013-2-24,30.4,27.8,23.5,27.5,23.9,0.0,90,85,76,29.96,29.60,14,4,14,0.00
2013-2-25,33.1,22.6,8.6,31.0,17.9,2.6,92,82,68,29.93,29.69,9,2,9,0.08
2013-2-26,34.3,25.1,13.8,30.0,17.5,8.0,85,73,52,29.96,29.66,14,3,14,0.00
2013-2-27,36.5,24.8,13.8,16.8,10.8,1.4,72,56,40,30.08,29.96,12,3,12,0.00
2013-2-28,45.1,28.1,9.3,20.7,7.6,-2.8,57,43,32,30.08,29.99,26,4,26,0.00
2013-3-1,52.7,36.6,21.7,18.8,11.3,5.5,53,36,23,30.16,30.05,10,2,10,0.00
2013-3-2,61.9,41.6,22.8,22.1,14.7,9.5,59,37,17,30.14,29.93,13,2,13,0.00
2013-3-3,63.9,47.1,33.8,22.5,15.6,10.0,51,31,16,29.93,29.60,18,2,18,0.00
2013-3-4,37.4,29.4,14.5,27.6,18.6,8.1,89,66,39,30.05,29.60,12,2,12,0.00
2013-3-5,40.8,24.7,7.9,27.0,11.5,1.6,79,59,36,30.11,29.96,9,1,9,0.00
2013-3-6,62.1,36.2,16.5,25.7,13.3,7.8,74,44,14,29.99,29.75,12,2,12,0.00
2013-3-7,67.5,44.3,24.4,19.4,14.4,11.0,61,34,12,29.90,29.75,13,2,13,0.00
2013-3-8,51.6,38.7,27.3,23.3,18.5,11.2,60,44,30,29.87,29.60,8,2,8,0.00
2013-3-9,35.1,31.4,24.8,31.5,26.4,17.1,98,82,56,29.96,29.54,9,1,9,0.00
2013-3-10,41.2,27.5,12.2,30.5,17.7,5.8,78,67,49,30.02,29.90,10,2,10,0.20
2013-3-11,55.9,37.9,23.4,28.9,18.3,12.7,87,50,20,30.02,29.81,24,4,25,0.00
2013-3-12,40.1,32.6,26.8,35.0,27.1,23.2,89,81,57,30.16,29.99,8,1,8,0.08
2013-3-13,68.7,45.3,26.1,28.6,20.3,7.4,82,46,15,30.14,30.02,17,3,17,0.00
2013-3-14,74.7,51.2,31.3,24.3,15.4,6.4,52,28,11,30.19,30.08,15,2,15,0.00
2013-3-15,77.2,57.2,42.1,23.6,14.7,5.7,33,21,10,30.08,29.84,15,3,15,0.00
2013-3-16,54.5,47.5,39.2,26.7,20.5,7.0,51,35,19,29.93,29.75,10,2,10,0.00
2013-3-17,64.4,45.1,30.4,22.5,15.9,5.7,62,35,13,29.75,29.52,26,5,26,0.00
2013-3-18,55.2,39.7,25.5,10.6,4.5,-2.6,42,24,15,29.84,29.75,25,4,27,0.00
2013-3-19,59.0,41.7,27.3,9.9,5.2,-2.6,43,23,14,30.19,29.81,17,4,17,0.00
2013-3-20,58.3,38.6,20.3,16.4,9.2,1.5,51,31,17,30.16,29.66,10,2,10,0.00
2013-3-21,62.4,42.8,28.2,23.2,12.2,0.4,50,30,16,29.75,29.49,22,4,22,0.00
2013-3-22,53.1,36.7,27.0,28.2,14.9,-1.4,88,45,22,29.81,29.57,20,3,20,0.00
2013-3-23,28.2,21.7,10.4,24.7,17.1,4.1,87,82,75,30.05,29.78,11,3,11,0.00
2013-3-24,28.2,16.6,0.0,25.1,11.9,-5.2,90,81,75,30.05,29.93,9,2,9,0.00
2013-3-25,37.4,23.3,9.0,27.1,15.4,3.5,82,72,50,30.11,30.02,9,2,9,0.04
2013-3-26,55.2,34.0,15.8,47.5,19.8,7.3,85,58,26,30.02,29.81,10,2,10,0.00
2013-3-27,62.4,41.8,25.3,25.2,20.5,14.4,71,46,24,30.02,29.87,13,2,13,0.00
2013-3-28,66.9,46.2,28.8,30.0,21.5,16.4,74,43,15,30.02,29.93,13,2,13,0.00
2013-3-29,71.2,50.8,33.8,28.1,20.6,15.8,57,34,14,30.05,29.96,15,3,15,0.00
2013-3-30,72.1,50.9,34.5,27.2,20.9,12.7,53,34,12,30.14,29.96,22,4,22,0.00
2013-3-31,73.2,51.6,29.7,28.5,17.5,6.5,74,34,11,30.11,29.90,13,2,13,0.00
2013-4-1,60.4,45.6,31.5,31.1,19.8,10.1,68,37,21,30.08,29.90,17,4,19,0.00
2013-4-2,43.7,39.8,37.6,37.4,29.9,22.9,89,69,45,30.02,29.93,8,2,8,0.04
2013-4-3,64.4,47.3,37.0,39.2,27.1,12.7,92,55,16,30.05,29.96,10,1,10,0.00
2013-4-4,75.2,52.9,31.8,25.2,18.2,10.2,56,29,13,30.08,29.96,10,3,10,0.00
2013-4-5,77.0,58.5,43.2,26.1,17.9,11.1,35,22,11,29.96,29.69,37,3,37,0.00
2013-4-6,68.2,55.6,40.8,21.4,16.3,8.1,29,22,15,29.90,29.81,20,4,24,0.00
2013-4-7,68.9,54.3,40.5,29.5,19.1,12.4,49,27,15,29.81,29.69,19,4,19,0.00
2013-4-8,70.9,47.1,27.7,27.2,21.2,15.9,85,39,14,29.78,29.40,20,4,20,0.00
2013-4-9,27.7,19.2,12.4,22.9,13.5,6.0,82,78,74,30.05,29.78,13,4,13,0.00
2013-4-10,32.5,20.8,7.0,24.5,12.9,0.6,87,71,54,30.02,29.75,11,3,11,0.08
2013-4-11,57.4,38.5,19.4,32.8,21.4,11.9,78,54,26,29.84,29.66,16,2,16,0.00
2013-4-12,65.5,44.0,29.3,35.8,22.0,15.8,71,44,16,29.90,29.78,18,3,18,0.00
2013-4-13,72.5,49.9,28.4,25.7,17.8,9.9,69,36,11,29.87,29.43,15,3,15,0.00
2013-4-14,57.0,44.8,34.2,45.2,20.6,1.0,97,49,15,29.72,29.49,27,6,27,0.08
2013-4-15,39.0,32.1,25.0,27.3,18.5,1.5,85,62,21,29.93,29.63,19,3,19,0.00
2013-4-16,37.0,30.6,24.6,33.9,25.9,19.3,89,83,78,29.93,29.75,15,4,15,0.12
2013-4-17,33.6,28.7,21.4,30.7,26.4,18.6,97,91,87,30.02,29.84,11,4,11,0.04
2013-4-18,41.2,27.6,14.2,29.3,18.5,8.4,89,71,35,30.05,29.96,12,3,12,0.04
2013-4-19,60.4,40.6,20.7,25.3,14.2,10.2,66,38,17,30.02,29.87,15,2,15,0.00
2013-4-20,65.5,48.5,32.0,26.4,20.0,13.7,52,33,18,29.93,29.81,10,2,10,0.00
2013-4-21,70.3,51.3,33.8,25.8,18.2,9.0,57,31,13,29.99,29.90,17,2,17,0.00
2013-4-22,55.8,35.4,24.1,29.2,22.6,16.1,89,63,32,30.14,29.81,17,3,17,0.00
2013-4-23,41.2,28.4,22.6,36.8,25.4,18.8,98,89,62,30.11,30.02,8,3,8,0.08
2013-4-24,63.5,39.2,21.2,42.8,19.5,5.2,92,56,13,30.08,29.99,15,3,15,0.00
2013-4-25,66.7,48.3,27.0,21.3,13.4,8.7,53,28,12,30.05,29.84,10,2,10,0.00
2013-4-26,72.1,53.0,32.7,23.2,14.6,6.0,48,24,11,30.14,29.93,13,2,13,0.00
2013-4-27,82.0,58.3,35.6,23.3,15.1,5.2,41,21,9,30.14,29.99,13,3,13,0.00
2013-4-28,83.7,62.6,38.1,24.6,16.5,6.5,34,19,9,30.02,29.84,15,3,15,0.00
2013-4-29,86.0,67.1,46.9,28.2,19.2,9.2,36,17,9,29.93,29.69,18,3,18,0.00
2013-4-30,64.9,53.1,40.6,30.5,22.9,10.0,64,32,17,29.96,29.66,15,3,15,0.00
2013-5-1,40.6,33.0,26.8,35.8,30.7,26.1,98,91,67,30.40,29.96,9,0,9,0.08
2013-5-2,52.3,34.2,21.4,40.2,24.9,12.7,98,74,29,30.49,30.22,9,1,9,0.20
2013-5-3,64.6,46.4,24.8,23.8,15.1,6.4,66,33,15,30.22,30.02,12,2,12,0.00
2013-5-4,63.1,48.8,0.0,25.8,18.3,0.0,50,30,21,30.11,29.96,11,3,11,0.00
2013-5-5,62.2,49.5,34.2,23.2,17.4,11.8,46,29,19,30.11,29.99,10,2,10,0.00
2013-5-6,70.3,54.0,38.1,29.7,23.3,16.5,45,31,20,30.02,29.87,9,2,9,0.00
2013-5-7,76.1,57.0,43.9,51.7,31.5,20.4,98,45,15,29.99,29.84,11,2,11,0.04
2013-5-8,64.2,48.7,41.2,49.6,42.4,28.8,98,83,30,29.99,29.87,20,2,20,0.28
2013-5-9,60.3,48.5,39.9,52.3,43.8,31.5,98,86,36,30.11,29.96,13,2,13,0.12
2013-5-10,71.4,51.6,35.1,47.7,34.3,24.5,98,61,22,30.19,30.05,22,2,22,0.04
2013-5-11,73.8,58.0,42.4,35.1,29.1,22.9,58,35,16,30.28,30.16,16,3,16,0.00
2013-5-12,84.4,64.6,47.3,32.6,25.7,17.6,48,26,11,30.16,30.02,11,3,11,0.00
2013-5-13,90.5,69.4,48.6,34.0,26.5,20.0,41,23,10,30.11,29.99,15,2,15,0.00
2013-5-14,87.4,67.6,50.5,35.0,28.4,22.0,42,25,11,30.02,29.90,17,3,17,0.00
2013-5-15,86.7,66.9,53.1,41.8,31.7,23.5,48,29,11,30.02,29.87,17,3,17,0.00
2013-5-16,87.1,68.1,48.4,38.6,29.8,18.5,60,29,11,29.96,29.75,13,2,13,0.00
2013-5-17,94.1,71.9,48.7,34.7,22.8,6.0,50,21,6,29.90,29.69,15,3,15,0.00
2013-5-18,78.6,64.4,52.7,27.9,13.3,5.8,33,15,8,29.90,29.78,24,3,24,0.00
2013-5-19,71.4,59.7,50.9,31.5,20.8,6.7,46,26,9,29.87,29.75,15,3,15,0.00
2013-5-20,66.0,54.0,47.5,42.9,32.2,24.4,75,45,24,29.99,29.81,13,2,13,0.00
2013-5-21,71.8,57.3,40.6,37.4,21.7,6.7,80,35,9,29.99,29.84,19,3,19,0.00
2013-5-22,78.1,61.4,44.2,40.9,24.4,8.8,54,29,8,30.05,29.81,13,2,13,0.00
2013-5-23,70.5,59.6,47.8,42.8,36.8,30.9,76,45,25,30.05,29.90,16,3,16,0.00
2013-5-24,88.0,69.7,49.6,47.1,27.0,8.6,71,30,5,29.99,29.81,14,2,14,0.00
2013-5-25,88.7,72.9,54.1,48.3,23.9,8.6,63,24,5,29.99,29.78,15,2,15,0.00
2013-5-26,86.5,70.7,55.8,36.2,17.3,8.6,36,16,6,29.93,29.81,17,2,17,0.00
2013-5-27,85.3,69.3,51.8,39.7,18.8,7.1,47,19,6,29.90,29.72,24,2,24,0.00
2013-5-28,82.8,66.1,47.5,35.0,22.1,8.5,48,23,6,29.84,29.57,17,2,17,0.00
2013-5-29,66.4,58.8,50.9,48.8,34.6,14.1,79,43,16,29.75,29.63,15,2,15,0.20
2013-5-30,70.5,60.5,47.3,27.9,15.4,6.0,46,19,9,29.87,29.69,27,5,27,0.00
2013-5-31,72.9,61.5,45.1,25.7,12.5,4.1,42,17,9,29.99,29.81,24,5,24,0.00
2013-6-1,71.8,59.3,43.5,30.3,22.6,4.1,56,27,12,30.14,29.99,12,2,12,0.00
2013-6-2,86.2,65.7,43.7,31.9,19.8,8.5,59,23,6,30.14,29.78,11,2,11,0.00
2013-6-3,89.8,73.8,50.2,30.9,15.9,8.5,47,16,5,29.93,29.72,17,3,21,0.00
2013-6-4,76.1,63.6,50.7,43.7,34.8,6.4,75,38,10,30.16,29.90,12,2,14,0.12
2013-6-5,57.7,52.3,46.9,45.0,40.3,36.4,83,65,47,30.14,30.05,10,1,10,0.00
2013-6-6,81.0,63.4,42.8,46.0,29.7,9.9,86,39,8,30.08,29.96,14,2,14,0.00
2013-6-7,81.5,67.6,51.6,39.3,27.3,14.9,58,26,9,30.08,29.81,15,2,19,0.00
2013-6-8,78.6,68.2,58.5,39.1,29.3,18.5,37,25,13,30.02,29.78,12,2,12,0.00
2013-6-9,92.3,71.5,48.0,42.2,22.9,6.1,70,26,4,30.02,29.87,9,2,9,0.00
2013-6-10,99.3,81.9,61.3,31.2,12.9,3.5,32,9,3,29.96,29.84,15,2,17,0.00
2013-6-11,98.4,81.7,58.6,32.2,15.5,3.5,36,12,3,29.99,29.78,22,4,22,0.00
2013-6-12,92.8,78.3,56.8,29.4,13.0,6.1,28,10,4,30.14,29.93,17,3,17,0.00
2013-6-13,85.3,72.9,58.8,50.8,40.9,15.4,71,36,10,30.14,29.93,13,2,13,0.00
2013-6-14,89.8,77.4,65.3,36.9,21.7,8.6,34,14,5,30.02,29.87,19,4,19,0.00
2013-6-15,80.6,69.6,57.2,41.3,36.9,32.9,50,32,20,30.11,29.96,9,2,9,0.00
2013-6-16,83.7,68.5,57.0,42.9,32.0,9.6,55,30,7,30.14,29.99,30,2,30,0.00
2013-6-17,81.9,67.7,51.1,39.8,29.9,14.9,59,29,9,30.14,30.02,11,2,11,0.00
2013-6-18,85.6,69.8,55.2,49.5,37.0,16.6,73,35,8,30.14,29.87,25,3,25,0.00
2013-6-19,95.7,76.3,54.1,46.5,26.8,6.1,67,25,4,29.99,29.66,20,3,20,0.00
2013-6-20,94.5,74.2,52.9,39.4,19.4,6.1,42,17,4,29.96,29.81,12,1,12,0.00
2013-6-21,97.5,77.3,57.9,36.6,21.2,3.5,38,17,3,29.96,29.78,17,1,17,0.00
2013-6-22,88.2,72.0,57.0,43.6,33.6,16.6,57,27,9,29.99,29.78,15,1,15,0.00
2013-6-23,87.1,68.4,54.5,50.9,36.6,10.7,68,37,6,30.05,29.84,9,2,13,0.00
2013-6-24,92.3,71.0,58.6,37.8,26.1,6.1,44,25,4,29.99,29.75,6,1,6,0.00
2013-6-25,94.5,76.5,56.7,30.3,17.6,6.1,31,14,4,30.05,29.87,12,1,12,0.00
2013-6-26,97.5,80.0,57.0,35.6,19.1,3.5,43,15,3,30.11,30.02,11,2,11,0.00
2013-6-27,97.5,81.9,61.3,37.2,19.5,3.5,35,14,3,30.22,30.11,11,2,11,0.00
2013-6-28,94.8,80.2,63.7,52.5,33.5,16.5,58,21,6,30.28,30.14,16,2,16,0.00
2013-6-29,84.6,72.7,61.0,52.7,42.6,28.4,69,36,13,30.25,30.11,8,2,15,0.00
2013-6-30,77.0,68.6,61.2,54.2,46.4,42.4,65,46,31,30.19,30.14,12,2,12,0.00
2013-7-1,82.0,68.3,55.2,54.0,43.6,32.6,83,46,20,30.25,30.14,13,2,13,0.04
2013-7-2,86.9,70.5,54.0,57.1,36.4,14.9,88,40,8,30.25,30.08,13,1,13,0.00
2013-7-3,90.9,72.4,55.0,46.7,32.5,9.5,66,29,6,30.14,29.93,12,2,12,0.00
2013-7-4,93.7,75.4,58.6,41.6,29.7,16.5,49,23,6,30.05,29.93,14,2,14,0.00
2013-7-5,91.8,74.4,61.3,53.6,37.6,17.1,66,30,7,29.99,29.87,19,1,19,0.00
2013-7-6,93.0,76.7,67.1,46.3,36.5,17.5,44,26,7,30.05,29.93,15,2,15,0.00
2013-7-7,84.0,73.9,63.0,54.2,41.8,35.5,56,33,19,30.11,30.02,12,2,12,0.00
2013-7-8,95.5,79.6,63.5,44.8,31.3,16.5,45,23,6,30.14,30.05,10,2,11,0.00
2013-7-9,93.9,79.1,62.8,41.2,25.6,6.1,43,20,4,30.19,30.08,20,2,20,0.00
2013-7-10,88.0,75.6,61.2,45.7,40.1,23.5,55,30,12,30.22,30.05,17,2,17,0.00
2013-7-11,98.4,79.4,61.2,53.5,36.9,3.9,62,29,3,30.14,29.93,17,3,17,0.00
2013-7-12,93.4,76.2,65.3,58.9,42.2,16.5,73,36,6,30.11,29.99,15,2,15,0.00
2013-7-13,94.6,72.0,61.5,61.2,51.6,24.7,90,58,9,30.19,30.08,25,1,25,0.75
2013-7-14,82.8,70.3,58.5,60.9,52.7,43.7,93,59,27,30.22,30.14,11,1,11,0.00
2013-7-15,76.3,68.5,64.0,63.5,52.6,34.4,90,61,31,30.19,30.11,17,2,17,0.12
2013-7-16,82.9,70.6,54.9,46.6,37.6,27.2,66,33,14,30.22,30.11,15,4,15,0.00
2013-7-17,91.8,75.1,57.2,51.4,38.6,22.4,73,32,10,30.22,30.11,17,3,17,0.00
2013-7-18,94.5,76.8,61.2,48.2,37.6,16.5,60,28,6,30.14,30.11,17,2,17,0.00
2013-7-19,85.6,74.2,64.8,49.2,43.8,35.9,54,36,20,30.14,30.14,11,2,11,0.00
2013-7-20,94.1,74.1,58.8,54.3,41.1,16.5,77,39,6,30.14,30.14,12,2,13,0.00
2013-7-21,92.5,75.9,59.4,50.1,41.0,17.5,65,33,7,30.14,30.14,10,1,10,0.00
2013-7-22,98.2,79.9,60.1,46.3,29.9,3.5,52,21,3,30.14,29.96,11,2,11,0.00
2013-7-23,93.9,78.0,61.2,46.5,29.6,16.5,40,21,6,30.16,30.02,8,1,8,0.00
2013-7-24,83.1,73.3,64.8,54.3,45.3,33.8,64,39,21,30.19,30.05,19,2,19,0.00
2013-7-25,81.5,65.7,58.8,56.3,47.7,35.6,78,55,20,30.25,30.08,15,1,15,0.08
2013-7-26,88.0,71.8,55.8,50.6,36.9,16.6,72,36,8,30.25,30.14,15,1,15,0.00
2013-7-27,81.3,68.0,55.9,57.9,45.4,38.4,83,48,22,30.19,30.05,8,1,8,0.16
2013-7-28,71.6,63.6,59.5,61.5,55.5,49.0,91,76,47,30.11,29.99,7,0,7,0.04
2013-7-29,73.0,63.9,57.0,59.4,52.1,41.7,88,68,36,30.16,29.96,10,1,10,0.00
2013-7-30,89.6,71.1,55.8,53.1,40.0,16.6,80,42,8,30.25,30.16,27,1,27,0.04
2013-7-31,91.8,74.3,60.8,49.2,36.6,16.6,63,33,7,30.31,30.14,10,1,14,0.00
2013-8-1,92.3,74.3,60.8,53.0,37.9,6.1,71,34,4,30.22,29.99,13,2,15,0.00
2013-8-2,94.3,75.7,59.2,49.2,34.4,16.5,64,29,6,30.11,29.99,21,2,21,0.00
2013-8-3,93.4,73.5,59.5,55.6,41.2,16.6,84,37,6,30.28,30.08,22,2,22,0.28
2013-8-4,90.7,71.3,56.5,55.0,43.5,17.5,82,46,7,30.25,30.08,17,1,17,0.24
2013-8-5,87.4,74.0,60.8,48.4,37.5,23.9,53,31,11,30.14,30.05,12,2,14,0.00
2013-8-6,91.4,73.4,58.8,46.7,34.5,8.6,59,29,5,30.14,30.02,20,2,20,0.00
2013-8-7,74.3,67.5,59.7,49.7,43.0,35.6,68,42,28,30.14,30.05,13,2,13,0.00
2013-8-8,78.3,63.9,55.0,55.8,49.3,38.6,84,62,28,30.19,30.05,21,2,21,0.28
2013-8-9,82.0,63.2,51.4,51.6,42.7,22.0,82,52,13,30.19,30.11,12,2,12,0.04
2013-8-10,89.2,68.5,50.9,50.6,36.6,16.6,80,40,8,30.19,30.05,13,2,13,0.00
2013-8-11,86.0,68.5,58.3,56.1,41.0,22.7,66,40,11,30.19,30.11,15,1,15,0.12
2013-8-12,83.3,66.5,54.0,54.9,44.5,37.4,83,49,20,30.25,30.11,15,2,15,0.08
2013-8-13,80.6,66.3,53.6,54.5,42.6,30.4,84,48,19,30.25,30.14,15,2,15,0.00
2013-8-14,84.9,67.6,53.1,51.5,37.9,16.6,79,40,8,30.19,30.08,11,1,11,0.00
2013-8-15,87.6,70.7,53.8,44.6,32.9,8.8,67,31,6,30.19,30.08,8,1,8,0.00
2013-8-16,92.8,73.6,54.7,43.9,26.8,6.1,60,25,4,30.19,30.08,9,1,9,0.00
2013-8-17,96.4,77.0,57.6,39.8,26.3,6.1,48,22,4,30.16,29.99,10,2,10,0.00
2013-8-18,93.0,75.7,58.5,49.7,30.9,6.1,66,27,4,30.14,30.05,10,1,10,0.00
2013-8-19,95.9,77.9,57.6,41.8,26.2,6.1,51,21,4,30.11,30.02,10,2,10,0.00
2013-8-20,98.1,81.0,64.2,39.3,21.7,3.5,35,15,3,30.11,29.96,11,2,11,0.00
2013-8-21,90.7,75.5,64.2,44.5,32.8,17.0,45,24,7,30.16,30.05,13,2,13,0.00
2013-8-22,85.5,70.1,62.1,54.9,48.9,38.7,74,50,25,30.22,30.11,15,2,15,0.04
2013-8-23,89.8,72.2,60.3,52.2,43.3,24.8,72,40,10,30.22,29.99,15,2,15,0.00
2013-8-24,88.5,70.4,58.3,58.9,44.5,24.5,76,46,10,30.16,30.05,15,1,15,0.08
2013-8-25,91.8,73.9,60.8,54.0,42.9,17.5,72,41,7,30.19,30.08,13,1,13,0.00
2013-8-26,93.4,76.4,60.1,58.2,42.5,24.7,79,38,9,30.19,30.11,11,1,11,0.00
2013-8-27,93.0,77.0,63.0,50.5,41.6,24.5,63,33,9,30.19,30.08,10,1,10,0.00
2013-8-28,94.6,76.8,60.8,51.2,37.6,16.5,65,32,6,30.14,30.08,9,1,9,0.00
2013-8-29,95.9,77.7,61.0,45.0,33.0,16.5,50,25,6,30.16,30.11,13,1,13,0.00
2013-8-30,92.5,74.4,66.9,55.8,42.0,22.7,60,34,9,30.22,30.11,17,1,17,0.00
2013-8-31,91.6,75.5,65.1,53.1,37.4,17.5,57,29,7,30.14,30.05,14,1,14,0.00
2013-9-1,79.3,70.1,64.2,51.0,45.1,39.9,59,41,31,30.22,30.11,8,1,8,0.00
2013-9-2,90.1,73.9,56.7,53.5,39.4,17.6,75,35,7,30.16,30.05,10,1,10,0.00
2013-9-3,93.4,78.6,64.9,49.8,35.1,16.5,54,26,6,30.14,30.05,13,2,13,0.00
2013-9-4,92.1,77.0,68.2,47.5,38.2,17.5,45,28,7,30.25,30.14,9,1,9,0.00
2013-9-5,98.2,76.4,61.9,49.9,37.5,16.5,61,32,6,30.22,30.11,14,1,14,0.00
2013-9-6,98.4,78.0,61.0,42.0,30.2,3.5,45,23,3,30.16,30.08,12,1,12,0.00
2013-9-7,95.4,76.6,58.8,45.2,28.6,6.1,56,24,4,30.16,30.02,12,2,12,0.00
2013-9-8,91.9,73.6,57.0,44.5,32.5,16.6,47,26,7,30.08,29.93,10,1,10,0.00
2013-9-9,86.4,67.6,57.9,52.7,44.9,29.4,75,48,16,30.11,29.93,14,2,14,0.00
2013-9-10,70.5,62.6,60.4,57.2,53.7,48.6,88,73,48,30.22,30.08,11,1,11,0.16
2013-9-11,69.6,62.8,60.3,66.5,59.1,57.0,93,88,74,30.22,30.14,6,0,6,0.24
2013-9-12,67.3,61.9,59.2,63.8,58.1,52.7,94,88,74,30.25,30.16,14,2,14,0.63
2013-9-13,77.2,64.6,58.5,63.4,54.6,44.1,94,74,32,30.19,29.93,10,1,10,0.35
2013-9-14,80.6,63.9,59.4,60.6,53.3,38.5,92,73,24,30.08,29.93,15,1,15,0.00
2013-9-15,61.5,58.3,55.0,55.3,52.9,48.4,91,82,70,30.25,30.08,8,0,8,0.39
2013-9-16,77.7,61.9,50.5,57.6,48.5,41.4,93,67,29,30.22,30.05,6,1,6,0.31
2013-9-17,86.2,68.4,51.1,51.3,33.8,8.9,83,41,6,30.08,29.84,9,2,9,0.31
2013-9-18,85.3,69.3,56.1,44.9,34.1,16.6,64,32,8,29.96,29.81,13,2,13,0.31
2013-9-19,66.0,60.5,50.2,38.7,32.4,24.0,58,35,26,30.16,29.93,8,1,8,0.00
2013-9-20,76.8,60.7,48.7,42.4,35.6,24.4,70,44,15,30.16,30.02,8,1,8,0.31
2013-9-21,84.4,66.4,47.7,50.1,29.0,8.8,83,37,6,30.08,29.84,11,2,11,0.31
2013-9-22,78.4,64.0,52.3,46.1,35.2,24.1,69,37,16,29.87,29.69,22,2,22,0.31
2013-9-23,67.3,58.0,49.1,50.1,27.8,9.8,88,42,12,30.05,29.63,22,4,22,0.91
2013-9-24,78.6,58.9,39.6,31.9,22.1,8.7,60,30,8,30.08,29.90,8,1,8,0.31
2013-9-25,84.6,65.8,41.9,38.5,19.9,6.8,71,25,6,29.90,29.54,17,2,17,0.31
2013-9-26,73.2,59.5,45.1,41.1,32.7,14.9,69,39,16,29.81,29.63,9,1,9,0.31
2013-9-27,52.5,47.7,39.7,46.7,42.2,36.2,87,81,69,29.96,29.75,8,0,8,0.08
2013-9-28,71.1,50.5,33.8,37.5,24.2,6.7,89,49,9,30.11,29.96,8,1,8,0.31
2013-9-29,80.4,57.4,37.6,32.8,23.1,8.5,68,36,7,30.08,29.93,8,1,8,0.31
2013-9-30,85.3,65.2,50.2,38.2,26.1,8.8,57,29,6,29.93,29.84,8,1,8,0.31
2013-10-1,78.6,60.4,43.9,39.1,30.6,15.6,66,39,10,30.05,29.93,11,2,11,0.31
2013-10-2,77.5,61.0,42.8,41.8,27.6,9.5,76,37,8,29.96,29.90,11,2,11,0.31
2013-10-3,67.8,53.4,40.5,44.3,35.1,29.7,79,54,26,29.93,29.75,11,2,11,0.31
2013-10-4,49.6,38.7,29.8,43.6,28.4,15.0,88,68,40,30.11,29.75,8,1,8,0.31
2013-10-5,63.3,42.8,27.1,26.8,13.3,-3.3,78,40,9,30.14,30.05,15,2,15,0.00
2013-10-6,71.1,50.4,30.6,28.9,15.4,4.5,56,31,9,30.19,30.11,8,1,8,0.31
2013-10-7,82.2,57.8,36.1,30.6,19.5,6.7,66,31,7,30.14,29.93,8,1,8,0.31
2013-10-8,81.9,61.7,45.9,29.9,19.3,6.7,51,25,7,29.93,29.75,8,1,8,0.31
2013-10-9,67.3,55.0,42.3,34.9,29.7,26.5,60,40,24,29.96,29.84,8,1,8,0.00
2013-10-10,62.4,50.2,41.7,43.5,35.3,30.6,84,59,36,29.93,29.57,25,1,25,0.31
2013-10-11,60.8,52.7,39.9,32.5,20.8,7.5,71,33,14,29.99,29.52,13,2,13,0.31
2013-10-12,62.8,48.2,37.0,37.6,32.3,27.3,82,57,30,30.08,29.96,13,1,13,0.31
2013-10-13,66.6,49.2,34.5,40.8,32.4,28.1,82,56,27,30.05,29.84,8,1,8,0.31
2013-10-14,58.6,46.5,40.1,43.1,32.4,23.6,86,61,34,30.11,29.78,17,2,17,0.04
2013-10-15,40.3,37.7,34.7,23.6,17.3,14.3,55,43,40,30.19,30.08,9,2,9,0.31
2013-10-16,56.8,40.7,27.7,28.0,17.7,7.2,75,44,15,30.11,29.96,8,1,8,0.31
2013-10-17,53.4,41.7,32.0,24.1,20.9,17.4,61,45,28,30.05,29.93,8,2,8,0.31
2013-10-18,46.2,37.1,28.9,32.4,22.0,17.0,82,56,34,30.11,29.96,10,1,10,0.31
2013-10-19,67.5,46.9,26.6,22.1,12.7,1.8,74,35,10,30.02,29.87,17,2,17,0.31
2013-10-20,50.0,41.9,33.6,32.1,23.8,14.7,83,51,27,30.05,29.84,10,1,10,0.04
2013-10-21,60.8,42.5,28.2,36.9,21.2,6.8,88,52,14,30.08,30.02,10,1,10,0.31
2013-10-22,66.2,48.7,33.6,26.5,18.7,9.9,54,34,12,30.11,30.02,10,1,10,0.31
2013-10-23,67.3,49.1,34.2,26.9,20.7,11.1,65,39,12,30.14,30.02,9,1,9,0.31
2013-10-24,59.0,43.6,30.7,35.0,27.6,24.4,81,56,31,30.16,30.11,6,1,6,0.31
2013-10-25,70.7,48.8,31.5,39.6,22.6,6.7,85,47,9,30.16,30.02,9,1,9,0.31
2013-10-26,64.6,47.1,32.7,36.5,24.2,11.1,78,46,13,30.25,30.05,8,1,8,0.00
2013-10-27,72.3,52.4,36.0,26.2,16.0,3.7,61,31,9,30.05,29.84,8,1,8,0.31
2013-10-28,43.2,36.8,33.3,29.9,25.9,17.5,85,66,38,29.96,29.81,8,2,8,0.31
2013-10-29,40.5,36.6,33.3,33.1,27.7,23.3,86,71,51,29.93,29.78,6,1,6,0.00
2013-10-30,55.8,40.4,32.7,38.5,27.9,10.9,87,65,20,29.81,29.72,10,2,10,0.31
2013-10-31,54.5,43.0,28.6,26.6,11.8,1.2,81,36,13,29.84,29.75,25,4,25,0.00
2013-11-1,53.8,44.2,32.0,23.6,13.6,2.4,50,31,13,30.11,29.84,22,3,22,0.31
2013-11-2,68.4,41.2,24.8,21.3,13.1,3.7,63,39,10,30.08,29.72,8,1,8,0.00
2013-11-3,69.6,52.9,37.9,18.5,7.9,-1.6,45,18,9,29.81,29.57,15,2,15,0.00
2013-11-4,46.8,36.6,29.3,24.0,13.0,4.5,67,39,21,29.93,29.78,13,4,13,0.00
2013-11-5,45.9,34.9,25.2,16.9,5.7,-7.9,51,31,12,30.05,29.78,11,3,11,0.00
2013-11-6,53.8,37.7,23.0,7.5,1.7,-3.8,35,23,11,30.19,30.02,19,3,19,0.00
2013-11-7,62.4,42.1,25.3,15.7,9.2,2.7,47,30,11,30.25,29.90,7,1,7,0.00
2013-11-8,66.6,49.6,30.4,17.0,9.9,2.0,51,24,10,29.93,29.75,8,2,11,0.00
2013-11-9,68.2,47.5,33.6,20.8,14.9,6.7,50,30,10,30.14,29.93,9,1,9,0.00
2013-11-10,69.4,47.6,28.8,25.9,13.6,-1.1,70,33,9,30.14,30.08,7,1,7,0.00
2013-11-11,68.4,41.6,31.5,23.5,15.2,5.3,70,40,10,30.43,30.08,14,2,14,0.00
2013-11-12,63.5,44.9,31.6,25.2,17.3,6.3,73,38,11,30.43,30.22,9,2,9,0.00
2013-11-13,70.7,49.8,29.1,16.0,7.4,-3.8,54,23,9,30.22,29.96,9,2,9,0.00
2013-11-14,61.2,49.9,37.6,24.3,14.9,1.9,42,26,13,30.05,29.72,18,2,18,0.00
2013-11-15,64.6,48.7,28.2,18.2,9.5,-1.6,52,25,9,29.72,29.49,17,3,17,0.00
2013-11-16,60.6,44.0,28.8,25.9,12.8,-1.1,61,33,9,29.54,29.37,25,3,25,0.00
2013-11-17,57.9,44.2,33.3,16.8,7.9,-0.6,44,24,12,29.96,29.54,15,4,15,0.00
2013-11-18,67.5,44.0,25.3,14.6,6.4,-5.2,53,26,9,30.05,29.93,9,2,9,0.00
2013-11-19,62.8,46.4,30.4,11.3,6.0,1.1,36,21,11,29.93,29.69,11,1,11,0.00
2013-11-20,59.0,47.5,30.6,19.4,10.0,2.5,57,24,12,29.96,29.75,16,2,16,0.00
2013-11-21,30.2,17.9,14.2,19.2,6.4,1.0,74,60,50,30.37,29.93,10,3,10,0.00
2013-11-22,35.2,27.8,16.9,12.2,8.4,2.7,55,44,34,30.40,30.28,7,2,7,0.00
2013-11-23,37.8,29.8,26.1,13.2,6.2,-1.6,54,37,28,30.40,30.14,8,1,8,0.00
2013-11-24,36.1,29.8,22.8,20.0,15.1,11.4,67,54,42,30.14,29.87,6,1,6,0.00
2013-11-25,40.6,36.1,26.8,21.0,14.3,5.4,65,42,23,30.16,29.90,10,2,10,0.00
2013-11-26,50.5,35.6,25.0,20.5,11.8,0.1,73,43,14,30.25,30.11,8,1,8,0.00
2013-11-27,66.6,44.0,27.5,12.7,7.5,-1.6,50,26,9,30.11,29.96,10,2,10,0.00
2013-11-28,50.0,35.5,25.0,18.6,14.3,10.9,60,43,26,30.11,30.02,7,1,7,0.00
2013-11-29,64.0,42.2,24.6,17.5,9.1,-4.2,66,32,9,30.08,29.96,9,1,9,0.00
2013-11-30,61.0,42.4,28.0,10.7,4.4,-6.1,43,24,9,30.08,30.02,6,2,6,0.00
2013-12-1,58.3,43.2,26.1,15.2,5.4,-1.1,42,23,12,30.05,29.81,15,2,15,0.00
2013-12-2,60.3,53.3,43.0,12.4,5.7,-0.2,28,15,12,29.81,29.54,25,6,25,0.00
2013-12-3,58.8,37.1,12.6,17.2,4.4,-1.5,60,30,12,29.69,29.46,17,4,17,0.00
2013-12-4,12.6,7.6,0.7,-0.5,-5.2,-11.7,55,55,55,29.93,29.66,8,3,8,0.00
2013-12-5,9.1,1.5,-5.6,-4.1,-11.0,-17.6,55,55,55,29.96,29.84,10,2,10,0.00
2013-12-6,10.4,2.1,-4.4,-2.6,-10.4,-16.4,55,55,55,30.05,29.93,6,1,6,0.00
2013-12-7,11.1,2.6,-5.6,-1.9,-9.9,-17.6,55,55,55,29.99,29.66,6,1,6,0.00
2013-12-8,23.5,10.8,2.8,2.8,-4.6,-10.2,55,49,38,29.84,29.60,7,2,7,0.00
2013-12-9,28.8,14.4,1.6,-2.2,-10.5,-18.5,48,35,15,29.99,29.81,23,4,23,0.00
2013-12-10,49.5,29.3,7.2,6.5,-4.4,-16.5,43,25,11,30.05,29.78,17,4,17,0.00
2013-12-11,39.2,24.0,11.8,9.9,5.8,-0.8,61,46,29,30.16,30.05,9,2,9,0.00
2013-12-12,60.1,32.1,13.6,14.9,5.7,-3.1,64,40,9,30.11,29.81,8,1,8,0.00
2013-12-13,51.4,32.6,17.8,12.1,5.6,-2.9,61,36,11,30.02,29.72,15,2,15,0.00
2013-12-14,47.3,32.4,21.6,10.4,5.4,-4.5,57,35,14,30.16,29.99,12,2,12,0.00
2013-12-15,58.1,42.5,23.9,14.2,4.0,-4.9,50,24,10,30.05,29.99,14,3,14,0.00
2013-12-16,64.8,50.3,32.9,8.6,1.3,-8.3,23,13,9,30.11,29.96,15,3,15,0.00
2013-12-17,65.3,43.9,25.9,12.4,4.4,-4.9,43,23,9,30.16,29.96,6,2,8,0.00
2013-12-18,67.3,50.1,37.0,8.9,1.6,-4.9,24,14,9,29.96,29.66,9,2,9,0.00
2013-12-19,47.3,34.3,16.5,16.2,11.2,3.5,70,40,24,29.78,29.52,11,2,11,0.00
2013-12-20,24.8,20.6,16.7,16.0,12.7,8.5,78,71,61,29.75,29.57,7,1,7,0.00
2013-12-21,31.6,22.1,12.7,21.1,12.0,6.0,81,66,43,29.78,29.49,10,1,10,0.00
2013-12-22,42.6,29.1,16.9,16.7,6.8,-6.2,78,47,16,30.05,29.78,17,3,17,0.00
2013-12-23,49.8,30.8,19.6,16.1,11.7,3.8,72,49,16,30.14,29.96,9,1,9,0.00
2013-12-24,55.2,40.5,23.5,15.6,7.7,-4.8,39,26,13,30.14,29.87,29,4,29,0.00
2013-12-25,47.5,29.9,15.4,3.8,-2.1,-10.0,50,28,12,30.25,30.05,11,2,11,0.00
2013-12-26,54.0,38.2,25.3,3.7,-1.9,-7.5,36,19,10,30.16,30.02,11,2,11,0.00
2013-12-27,62.2,42.6,26.6,11.1,5.9,-1.6,40,24,11,30.14,29.93,8,2,8,0.00
2013-12-28,60.3,37.5,21.7,20.6,10.6,-0.2,76,38,12,30.08,29.75,16,3,16,0.00
2013-12-29,37.4,24.9,13.8,11.8,5.9,-6.2,66,47,19,30.11,29.84,8,2,8,0.00
2013-12-30,50.0,37.4,23.0,8.7,3.2,-4.9,49,26,11,30.08,29.87,18,4,18,0.00
2013-12-31,59.0,41.4,26.4,15.2,7.3,-0.2,45,27,12,29.99,29.84,13,3,18,0.00
2014-1-1,41.9,35.9,29.5,27.6,17.5,8.7,74,48,30,30.14,29.81,13,3,13,0.00
2014-1-2,48.6,35.3,16.5,17.4,12.2,4.0,73,41,17,30.14,29.93,8,2,8,0.00